createdAt,value
2022-08-02T00:00:56.570Z,99755.56
2022-08-02T00:03:24.645Z,99759.88
2022-08-02T00:05:53.469Z,99754.88
2022-08-02T00:08:21.839Z,99754.88
2022-08-02T00:10:48.664Z,99760.88
2022-08-02T00:13:15.812Z,99751.56
2022-08-02T00:15:42.472Z,99751.47
2022-08-02T00:18:09.152Z,99750.06
2022-08-02T00:20:35.814Z,99755.72
2022-08-02T00:23:02.431Z,99754.03
2022-08-02T00:25:29.030Z,99749.66
2022-08-02T00:27:55.710Z,99753.25
2022-08-02T00:30:22.427Z,99754.75
2022-08-02T00:32:49.108Z,99748.16
2022-08-02T00:35:15.774Z,99758.84
2022-08-02T00:37:42.504Z,99758.47
2022-08-02T00:40:10.599Z,99750.28
2022-08-02T00:42:38.669Z,99757.25
2022-08-02T00:45:05.985Z,99757.56
2022-08-02T00:47:32.813Z,99758.97
2022-08-02T00:49:59.503Z,99768.97
2022-08-02T00:52:26.450Z,99760.16
2022-08-02T00:54:53.195Z,99765.91
2022-08-02T00:57:19.872Z,99769.03
2022-08-02T00:59:46.560Z,99770.03
2022-08-02T01:02:13.376Z,99774.34
2022-08-02T01:04:40.230Z,99775.88
2022-08-02T01:07:13.125Z,99774.53
2022-08-02T01:09:45.096Z,99767.41
2022-08-02T01:12:12.914Z,99763.69
2022-08-02T01:14:44.587Z,99774.53
2022-08-02T01:17:49.980Z,99780.03
2022-08-02T01:20:40.893Z,99774.53
2022-08-02T01:23:13.828Z,99770.63
2022-08-02T01:25:43.704Z,99767.75
2022-08-02T01:28:47.615Z,99766.94
2022-08-02T01:31:30.694Z,99769.84
2022-08-02T01:34:04.143Z,99757.09
2022-08-02T01:36:36.240Z,99763.34
2022-08-02T01:39:05.406Z,99763.41
2022-08-02T01:41:34.360Z,99753.13
2022-08-02T01:44:03.054Z,99750.97
2022-08-02T01:46:31.830Z,99758.13
2022-08-02T01:49:02.142Z,99759.09
2022-08-02T01:57:24.627Z,99772.13
2022-08-02T01:59:53.446Z,99773.94
2022-08-02T02:02:21.908Z,99772.41
2022-08-02T02:04:51.902Z,99779.09
2022-08-02T02:07:21.220Z,99774.84
2022-08-02T02:09:51.045Z,99768.69
2022-08-02T02:12:19.852Z,99772.31
2022-08-02T02:14:49.989Z,99770.88
2022-08-02T02:17:50.751Z,99772.56
2022-08-02T02:20:19.226Z,99767.09
2022-08-02T02:22:48.481Z,99769.34
2022-08-02T02:25:19.543Z,99772.94
2022-08-02T02:28:16.910Z,99775.34
2022-08-02T02:30:48.782Z,99780.47
2022-08-02T02:33:18.712Z,99787.75
2022-08-02T02:35:47.980Z,99794.44
2022-08-02T02:38:18.180Z,99797.66
2022-08-02T02:40:47.522Z,99797.66
2022-08-02T02:43:15.645Z,99798.25
2022-08-02T02:45:43.634Z,99799.00
2022-08-02T02:48:12.128Z,99799.00
2022-08-02T02:50:39.689Z,99796.00
2022-08-02T02:53:07.076Z,99796.34
2022-08-02T02:55:33.854Z,99806.13
2022-08-02T02:58:01.432Z,99797.88
2022-08-02T03:00:48.375Z,99796.53
2022-08-02T03:03:16.906Z,99809.19
2022-08-02T03:05:48.220Z,99808.25
2022-08-02T03:08:15.661Z,99805.41
2022-08-02T03:10:44.455Z,99809.66
2022-08-02T03:13:11.501Z,99811.34
2022-08-02T03:15:39.921Z,99814.69
2022-08-02T03:18:08.660Z,99819.56
2022-08-02T03:20:35.500Z,99818.25
2022-08-02T03:23:02.147Z,99823.50
2022-08-02T03:25:28.814Z,99819.88
2022-08-02T03:27:55.441Z,99828.00
2022-08-02T03:30:24.705Z,99826.13
2022-08-02T03:32:51.622Z,99832.53
2022-08-02T03:35:23.719Z,99829.56
2022-08-02T03:37:54.135Z,99832.81
2022-08-02T03:40:21.654Z,99837.38
2022-08-02T03:42:49.477Z,99844.50
2022-08-02T03:45:16.732Z,99844.50
2022-08-02T03:47:44.457Z,99846.91
2022-08-02T03:50:13.481Z,99843.56
2022-08-02T03:52:42.624Z,99845.25
2022-08-02T03:55:11.507Z,99842.56
2022-08-02T03:57:40.259Z,99845.44
2022-08-02T04:00:13.573Z,99850.00
2022-08-02T04:02:40.214Z,99853.47
2022-08-02T04:05:07.163Z,99854.06
2022-08-02T04:08:34.179Z,99851.91
2022-08-02T04:10:20.422Z,99847.66
2022-08-02T04:12:47.207Z,99845.63
2022-08-02T04:15:16.801Z,99850.50
2022-08-02T04:17:49.924Z,99857.78
2022-08-02T04:20:23.037Z,99858.63
2022-08-02T04:23:06.563Z,99862.22
2022-08-02T04:25:40.429Z,99865.81
2022-08-02T04:28:16.930Z,99862.25
2022-08-02T04:30:46.619Z,99859.53
2022-08-02T04:33:13.596Z,99870.38
2022-08-02T04:35:40.348Z,99865.97
2022-08-02T04:38:10.289Z,99883.41
2022-08-02T04:40:37.966Z,99879.81
2022-08-02T04:43:04.814Z,99882.34
2022-08-02T04:45:31.858Z,99883.66
2022-08-02T04:48:06.413Z,99878.88
2022-08-02T04:50:34.079Z,99888.97
2022-08-02T04:53:00.923Z,99882.72
2022-08-02T04:55:29.329Z,99889.97
2022-08-02T04:57:57.677Z,99887.03
2022-08-02T05:00:26.485Z,99898.09
2022-08-02T05:02:53.254Z,99894.75
2022-08-02T05:05:20.474Z,99903.81
2022-08-02T05:07:47.355Z,99899.53
2022-08-02T05:10:14.223Z,99900.09
2022-08-02T05:12:41.381Z,99908.34
2022-08-02T05:15:12.695Z,99899.97
2022-08-02T05:17:39.928Z,99909.28
2022-08-02T05:20:17.948Z,99908.59
2022-08-02T05:22:45.029Z,99906.41
2022-08-02T05:25:12.097Z,99905.66
2022-08-02T05:27:38.864Z,99903.09
2022-08-02T05:30:06.326Z,99913.34
2022-08-02T05:32:33.022Z,99914.66
2022-08-02T05:35:03.514Z,99917.53
2022-08-02T05:37:31.823Z,99919.50
2022-08-02T05:40:01.122Z,99913.13
2022-08-02T05:42:31.227Z,99916.81
2022-08-02T05:44:58.025Z,99920.69
2022-08-02T05:47:25.903Z,99920.53
2022-08-02T05:49:52.601Z,99925.38
2022-08-02T05:52:20.734Z,99929.56
2022-08-02T05:54:55.255Z,99929.03
2022-08-02T05:57:51.759Z,99927.28
2022-08-02T06:00:18.710Z,99931.09
2022-08-02T06:02:46.468Z,99936.44
2022-08-02T06:05:15.569Z,99931.44
2022-08-02T06:07:44.651Z,99933.94
2022-08-02T06:10:16.011Z,99935.44
2022-08-02T06:13:18.197Z,99933.13
2022-08-02T06:15:52.654Z,99931.94
2022-08-02T06:18:28.027Z,99928.34
2022-08-02T06:22:34.917Z,99932.44
2022-08-02T06:23:58.952Z,99944.28
2022-08-02T06:26:27.938Z,99941.53
2022-08-02T06:28:56.057Z,99940.06
2022-08-02T06:31:23.025Z,99937.06
2022-08-02T06:33:49.979Z,99945.03
2022-08-02T06:36:22.062Z,99950.28
2022-08-02T06:39:05.597Z,99951.22
2022-08-02T06:41:41.061Z,99941.63
2022-08-02T06:44:45.222Z,99959.13
2022-08-02T06:47:11.197Z,99953.56
2022-08-02T06:49:52.599Z,99956.59
2022-08-02T06:52:25.643Z,99960.41
2022-08-02T06:54:56.703Z,99967.38
2022-08-02T06:57:23.358Z,99960.41
2022-08-02T06:59:49.998Z,99959.97
2022-08-02T07:02:16.637Z,99957.66
2022-08-02T07:04:44.412Z,99965.06
2022-08-02T07:07:10.984Z,99960.91
2022-08-02T07:09:37.624Z,99955.94
2022-08-02T07:12:04.675Z,99957.72
2022-08-02T07:14:32.619Z,99951.53
2022-08-02T07:17:02.743Z,99955.13
2022-08-02T07:19:38.031Z,99959.13
2022-08-02T07:22:05.043Z,99960.72
2022-08-02T07:24:31.775Z,99958.03
2022-08-02T07:27:11.058Z,99964.56
2022-08-02T07:29:46.302Z,99965.81
2022-08-02T07:32:26.290Z,99955.91
2022-08-02T07:34:54.263Z,99958.91
2022-08-02T07:37:52.998Z,99959.50
2022-08-02T07:40:15.254Z,99962.50
2022-08-02T07:42:49.128Z,99963.03
2022-08-02T07:45:15.787Z,99961.38
2022-08-02T07:47:47.428Z,99953.91
2022-08-02T07:50:16.779Z,99957.00
2022-08-02T07:52:44.825Z,99959.75
2022-08-02T07:55:13.666Z,99954.19
2022-08-02T07:57:46.125Z,99971.69
2022-08-02T08:00:16.241Z,99968.63
2022-08-02T08:02:43.920Z,99968.94
2022-08-02T08:05:11.370Z,99960.31
2022-08-02T08:07:39.062Z,99962.53
2022-08-02T08:10:07.289Z,99960.84
2022-08-02T08:12:33.968Z,99951.94
2022-08-02T08:15:00.612Z,99956.72
2022-08-02T08:17:27.390Z,99961.66
2022-08-02T08:19:53.990Z,99959.44
2022-08-02T08:22:21.275Z,99960.56
2022-08-02T08:24:48.576Z,99958.06
2022-08-02T08:27:16.432Z,99958.38
2022-08-02T08:29:44.081Z,99956.38
2022-08-02T08:32:16.183Z,99957.72
2022-08-02T08:34:44.438Z,99961.75
2022-08-02T08:37:16.764Z,99962.22
2022-08-02T08:39:58.111Z,99955.03
2022-08-02T08:42:29.305Z,99959.25
2022-08-02T08:44:57.508Z,99952.13
2022-08-02T08:47:34.423Z,99961.22
2022-08-02T08:50:05.084Z,99954.34
2022-08-02T08:52:40.229Z,99952.22
2022-08-02T08:55:09.720Z,99954.44
2022-08-02T08:57:42.345Z,99954.94
2022-08-02T09:00:12.850Z,99949.03
2022-08-02T09:02:42.793Z,99960.72
2022-08-02T09:05:15.305Z,99956.94
2022-08-02T09:07:44.818Z,99956.34
2022-08-02T09:10:44.134Z,99954.66
2022-08-02T09:13:45.470Z,99957.81
2022-08-02T09:16:14.502Z,99950.63
2022-08-02T09:18:47.339Z,99952.63
2022-08-02T09:21:16.341Z,99958.09
2022-08-02T09:23:45.933Z,99951.81
2022-08-02T09:26:16.428Z,99961.88
2022-08-02T09:28:46.520Z,99949.44
2022-08-02T09:31:18.266Z,99943.06
2022-08-02T09:33:50.305Z,99948.22
2022-08-02T09:36:17.427Z,99943.53
2022-08-02T09:38:57.631Z,99939.81
2022-08-02T09:41:26.907Z,99944.22
2022-08-02T09:44:05.043Z,99940.44
2022-08-02T09:46:41.619Z,99945.66
2022-08-02T09:49:16.961Z,99938.38
2022-08-02T09:51:46.936Z,99933.19
2022-08-02T09:54:23.782Z,99932.16
2022-08-02T09:56:59.049Z,99930.16
2022-08-02T09:59:26.808Z,99930.63
2022-08-02T10:02:01.799Z,99918.91
2022-08-02T10:04:34.167Z,99928.38
2022-08-02T10:07:17.694Z,99927.59
2022-08-02T10:09:47.538Z,99921.63
2022-08-02T10:12:15.319Z,99921.16
2022-08-02T10:14:42.158Z,99916.56
2022-08-02T10:17:08.967Z,99909.69
2022-08-02T10:20:01.220Z,99907.75
2022-08-02T10:22:23.068Z,99911.78
2022-08-02T10:24:50.616Z,99906.84
2022-08-02T10:27:20.325Z,99897.28
2022-08-02T10:29:53.801Z,99895.66
2022-08-02T10:32:29.639Z,99899.56
2022-08-02T10:35:19.421Z,99894.41
2022-08-02T10:37:56.606Z,99891.28
2022-08-02T10:40:23.414Z,99887.94
2022-08-02T10:42:55.171Z,99895.03
2022-08-02T10:45:22.969Z,99893.78
2022-08-02T10:48:07.529Z,99901.78
2022-08-02T10:50:46.650Z,99898.84
2022-08-02T10:53:33.044Z,99901.44
2022-08-02T10:56:02.104Z,99894.78
2022-08-02T10:58:32.510Z,99899.56
2022-08-02T11:01:05.215Z,99895.56
2022-08-02T11:03:32.947Z,99892.31
2022-08-02T11:06:09.494Z,99887.56
2022-08-02T11:09:33.728Z,99894.63
2022-08-02T11:12:06.392Z,99887.84
2022-08-02T11:14:36.373Z,99899.06
2022-08-02T11:17:13.159Z,99874.75
2022-08-02T11:20:16.232Z,99884.53
2022-08-02T11:22:44.603Z,99874.22
2022-08-02T11:25:23.450Z,99881.81
2022-08-02T11:27:54.249Z,99876.88
2022-08-02T11:30:26.803Z,99875.50
2022-08-02T11:32:59.192Z,99870.94
2022-08-02T11:35:39.824Z,99870.22
2022-08-02T11:38:17.300Z,99860.13
2022-08-02T11:40:45.163Z,99870.56
2022-08-02T11:43:18.487Z,99879.69
2022-08-02T11:45:45.514Z,99872.47
2022-08-02T11:48:12.260Z,99864.13
2022-08-02T11:50:39.109Z,99859.63
2022-08-02T11:53:23.527Z,99854.63
2022-08-02T11:55:50.160Z,99854.41
2022-08-02T11:58:16.780Z,99860.28
2022-08-02T12:00:47.022Z,99856.44
2022-08-02T12:03:19.297Z,99862.28
2022-08-02T12:06:05.209Z,99857.88
2022-08-02T12:08:36.680Z,99871.47
2022-08-02T12:11:03.982Z,99867.81
2022-08-02T12:13:44.183Z,99864.84
2022-08-02T12:16:31.824Z,99847.13
2022-08-02T12:19:17.438Z,99854.47
2022-08-02T12:21:44.155Z,99850.50
2022-08-02T12:24:12.098Z,99846.63
2022-08-02T12:26:46.596Z,99855.50
2022-08-02T12:29:13.944Z,99845.50
2022-08-02T12:31:56.758Z,99840.94
2022-08-02T12:34:31.213Z,99844.78
2022-08-02T12:36:59.047Z,99845.91
2022-08-02T12:39:37.910Z,99837.44
2022-08-02T12:42:06.077Z,99841.59
2022-08-02T12:44:32.856Z,99842.84
2022-08-02T12:47:05.231Z,99840.19
2022-08-02T12:49:32.604Z,99838.53
2022-08-02T12:52:03.420Z,99836.66
2022-08-02T12:54:40.386Z,99832.03
2022-08-02T12:57:14.361Z,99832.28
2022-08-02T12:59:44.535Z,99824.75
2022-08-02T13:02:13.513Z,99825.72
2022-08-02T13:04:41.753Z,99828.91
2022-08-02T13:07:17.413Z,99824.63
2022-08-02T13:09:48.409Z,99823.44
2022-08-02T13:12:15.806Z,99816.84
2022-08-02T13:14:44.108Z,99821.25
2022-08-02T13:17:11.721Z,99827.41
2022-08-02T13:19:38.675Z,99823.63
2022-08-02T13:22:05.929Z,99819.50
2022-08-02T13:24:41.310Z,99814.38
2022-08-02T13:27:21.382Z,99816.88
2022-08-02T13:29:49.553Z,99819.81
2022-08-02T13:32:16.811Z,99821.19
2022-08-02T13:34:44.233Z,99815.88
2022-08-02T13:37:11.078Z,99819.22
2022-08-02T13:39:37.784Z,99822.13
2022-08-02T13:42:05.882Z,99818.47
2022-08-02T13:44:33.496Z,99815.88
2022-08-02T13:47:01.894Z,99824.66
2022-08-02T13:49:51.585Z,99813.13
2022-08-02T13:52:16.591Z,99819.19
2022-08-02T13:54:43.515Z,99807.94
2022-08-02T13:57:10.296Z,99802.75
2022-08-02T13:59:56.968Z,99803.22
2022-08-02T14:02:23.556Z,99805.94
2022-08-02T14:04:50.204Z,99805.56
2022-08-02T14:07:16.826Z,99807.59
2022-08-02T14:09:43.736Z,99796.53
2022-08-02T14:12:11.368Z,99793.19
2022-08-02T14:14:38.534Z,99800.59
2022-08-02T14:17:05.641Z,99802.25
2022-08-02T14:19:32.380Z,99800.84
2022-08-02T14:22:11.812Z,99794.72
2022-08-02T14:24:39.794Z,99797.53
2022-08-02T14:27:06.529Z,99797.16
2022-08-02T14:29:33.269Z,99803.44
2022-08-02T14:32:00.105Z,99807.47
2022-08-02T14:34:27.517Z,99798.38
2022-08-02T14:36:55.970Z,99809.69
2022-08-02T14:39:23.013Z,99800.34
2022-08-02T14:41:58.217Z,99797.94
2022-08-02T14:44:27.366Z,99800.78
2022-08-02T14:46:54.069Z,99794.53
2022-08-02T14:49:25.163Z,99802.72
2022-08-02T14:51:56.997Z,99797.66
2022-08-02T14:54:31.282Z,99793.16
2022-08-02T14:56:59.391Z,99795.91
2022-08-02T14:59:26.510Z,99790.16
2022-08-02T15:01:53.394Z,99792.31
2022-08-02T15:04:20.334Z,99792.59
2022-08-02T15:06:46.988Z,99801.00
2022-08-02T15:09:13.697Z,99797.13
2022-08-02T15:11:47.405Z,99799.03
2022-08-02T15:14:25.690Z,99795.38
2022-08-02T15:16:57.047Z,99796.31
2022-08-02T15:19:28.714Z,99792.25
2022-08-02T15:22:11.569Z,99793.09
2022-08-02T15:24:44.020Z,99800.38
2022-08-02T15:27:13.976Z,99798.78
2022-08-02T15:29:41.876Z,99797.25
2022-08-02T15:32:08.674Z,99795.84
2022-08-02T15:34:35.296Z,99796.94
2022-08-02T15:37:02.561Z,99792.03
2022-08-02T15:39:29.514Z,99788.78
2022-08-02T15:41:56.361Z,99796.41
2022-08-02T15:44:24.867Z,99789.38
2022-08-02T15:46:51.819Z,99801.91
2022-08-02T15:49:20.474Z,99799.03
2022-08-02T15:51:47.174Z,99792.44
2022-08-02T15:54:13.773Z,99791.38
2022-08-02T15:56:40.370Z,99790.72
2022-08-02T15:59:07.240Z,99796.72
2022-08-02T16:01:37.983Z,99787.97
2022-08-02T16:04:08.626Z,99786.16
2022-08-02T16:06:36.754Z,99799.03
2022-08-02T16:09:04.243Z,99788.66
2022-08-02T16:11:30.970Z,99786.63
2022-08-02T16:13:59.148Z,99786.00
2022-08-02T16:16:34.859Z,99793.13
2022-08-02T16:19:46.548Z,99795.50
2022-08-02T16:21:50.608Z,99797.50
2022-08-02T16:24:17.589Z,99795.91
2022-08-02T16:26:44.418Z,99797.91
2022-08-02T16:29:11.238Z,99795.88
2022-08-02T16:31:42.443Z,99794.63
2022-08-02T16:34:09.885Z,99798.28
2022-08-02T16:36:36.575Z,99800.25
2022-08-02T16:39:04.700Z,99800.94
2022-08-02T16:41:50.742Z,99803.84
2022-08-02T16:44:18.134Z,99804.22
2022-08-02T16:46:53.755Z,99803.84
2022-08-02T16:50:04.610Z,99810.63
2022-08-02T16:52:07.181Z,99813.97
2022-08-02T16:54:37.343Z,99807.56
2022-08-02T16:57:05.078Z,99809.22
2022-08-02T16:59:42.801Z,99814.38
2022-08-02T17:02:25.639Z,99811.78
2022-08-02T17:04:52.483Z,99813.56
2022-08-02T17:08:08.224Z,99816.97
2022-08-02T17:10:09.515Z,99811.72
2022-08-02T17:12:37.419Z,99816.78
2022-08-02T17:16:07.451Z,99818.81
2022-08-02T17:17:51.865Z,99819.56
2022-08-02T17:20:18.709Z,99821.88
2022-08-02T17:22:45.886Z,99816.16
2022-08-02T17:25:14.782Z,99822.88
2022-08-02T17:27:44.625Z,99825.22
2022-08-02T17:30:12.952Z,99818.13
2022-08-02T17:32:40.161Z,99819.97
2022-08-02T17:35:12.835Z,99820.94
2022-08-02T17:37:42.998Z,99825.81
2022-08-02T17:40:21.612Z,99820.34
2022-08-02T17:42:50.610Z,99821.00
2022-08-02T17:45:25.565Z,99823.81
2022-08-02T17:48:04.555Z,99822.72
2022-08-02T17:50:33.285Z,99822.22
2022-08-02T17:53:00.456Z,99825.59
2022-08-02T17:55:27.484Z,99824.78
2022-08-02T17:57:59.443Z,99825.06
2022-08-02T18:00:37.707Z,99838.94
2022-08-02T18:03:07.905Z,99829.50
2022-08-02T18:05:39.636Z,99830.34
2022-08-02T18:08:21.393Z,99830.63
2022-08-02T18:10:49.716Z,99823.38
2022-08-02T18:13:16.459Z,99837.78
2022-08-02T18:15:45.518Z,99838.88
2022-08-02T18:18:13.016Z,99838.88
2022-08-02T18:20:41.074Z,99833.31
2022-08-02T18:23:10.966Z,99839.38
2022-08-02T18:25:46.676Z,99842.69
2022-08-02T18:28:14.583Z,99844.31
2022-08-02T18:30:42.162Z,99839.84
2022-08-02T18:33:54.375Z,99851.16
2022-08-02T18:35:56.012Z,99848.06
2022-08-02T18:38:26.773Z,99851.91
2022-08-02T18:40:54.511Z,99849.13
2022-08-02T18:43:25.362Z,99853.78
2022-08-02T18:46:06.128Z,99853.50
2022-08-02T18:48:39.697Z,99864.50
2022-08-02T18:51:12.745Z,99863.34
2022-08-02T18:53:41.942Z,99862.78
2022-08-02T18:56:20.158Z,99862.13
2022-08-02T18:58:53.223Z,99864.06
2022-08-02T19:01:31.640Z,99868.16
2022-08-02T19:04:00.950Z,99865.94
2022-08-02T19:06:29.046Z,99875.84
2022-08-02T19:09:05.963Z,99877.22
2022-08-02T19:11:40.918Z,99878.53
2022-08-02T19:14:08.223Z,99874.63
2022-08-02T19:16:36.805Z,99881.78
2022-08-02T19:19:07.698Z,99881.75
2022-08-02T19:22:17.740Z,99885.53
2022-08-02T19:24:21.324Z,99879.72
2022-08-02T19:26:51.901Z,99889.34
2022-08-02T19:29:42.343Z,99890.72
2022-08-02T19:32:39.375Z,99887.38
2022-08-02T19:34:56.118Z,99894.84
2022-08-02T19:37:23.076Z,99903.13
2022-08-02T19:39:50.516Z,99905.31
2022-08-02T19:42:18.041Z,99900.31
2022-08-02T19:44:45.933Z,99903.66
2022-08-02T19:47:19.413Z,99895.16
2022-08-02T19:49:49.020Z,99902.72
2022-08-02T19:52:21.797Z,99904.97
2022-08-02T19:54:55.621Z,99904.47
2022-08-02T19:57:25.174Z,99906.63
2022-08-02T19:59:52.785Z,99903.31
2022-08-02T20:02:20.887Z,99904.97
2022-08-02T20:04:50.078Z,99904.97
2022-08-02T20:07:49.809Z,99903.00
2022-08-02T20:10:04.032Z,99905.19
2022-08-02T20:12:37.135Z,99905.72
2022-08-02T20:15:07.916Z,99900.47
2022-08-02T20:17:46.459Z,99894.34
2022-08-02T20:20:14.724Z,99897.38
2022-08-02T20:22:59.922Z,99898.22
2022-08-02T20:25:29.000Z,99898.75
2022-08-02T20:27:55.892Z,99902.59
2022-08-02T20:30:25.578Z,99889.88
2022-08-02T20:32:58.914Z,99892.66
2022-08-02T20:35:29.174Z,99886.56
2022-08-02T20:38:04.811Z,99894.66
2022-08-02T20:40:32.632Z,99893.81
2022-08-02T20:42:59.885Z,99890.69
2022-08-02T20:45:27.086Z,99888.81
2022-08-02T20:47:54.914Z,99895.34
2022-08-02T20:50:45.118Z,99888.19
2022-08-02T20:53:23.616Z,99890.88
2022-08-02T20:55:53.945Z,99898.34
2022-08-02T20:58:26.948Z,99894.13
2022-08-02T21:01:08.555Z,99893.28
2022-08-02T21:03:40.170Z,99898.81
2022-08-02T21:06:14.660Z,99890.78
2022-08-02T21:08:41.650Z,99889.81
2022-08-02T21:11:13.918Z,99887.81
2022-08-02T21:13:46.532Z,99892.38
2022-08-02T21:16:18.374Z,99890.88
2022-08-02T21:18:48.821Z,99888.94
2022-08-02T21:21:16.597Z,99888.88
2022-08-02T21:23:48.565Z,99888.88
2022-08-02T21:26:19.742Z,99890.63
2022-08-02T21:28:52.516Z,99888.19
2022-08-02T21:31:19.162Z,99894.56
2022-08-02T21:33:57.087Z,99890.69
2022-08-02T21:36:30.976Z,99895.63
2022-08-02T21:39:04.882Z,99895.13
2022-08-02T21:41:50.201Z,99906.72
2022-08-02T21:44:18.884Z,99903.38
2022-08-02T21:46:49.943Z,99907.22
2022-08-02T21:49:18.569Z,99900.56
2022-08-02T21:51:49.786Z,99902.72
2022-08-02T21:54:20.350Z,99900.34
2022-08-02T21:56:50.114Z,99903.91
2022-08-02T21:59:25.810Z,99903.91
2022-08-02T22:01:56.886Z,99902.25
2022-08-02T22:04:25.059Z,99909.41
2022-08-02T22:06:52.552Z,99903.75
2022-08-02T22:09:43.883Z,99903.06
2022-08-02T22:12:12.644Z,99905.91
2022-08-02T22:14:39.995Z,99905.66
2022-08-02T22:17:08.638Z,99902.06
2022-08-02T22:19:35.607Z,99895.25
2022-08-02T22:22:02.233Z,99900.13
2022-08-02T22:24:30.068Z,99904.56
2022-08-02T22:26:57.581Z,99905.16
2022-08-02T22:29:24.510Z,99904.06
2022-08-02T22:31:52.068Z,99900.25
2022-08-02T22:34:36.746Z,99901.66
2022-08-02T22:37:05.845Z,99907.84
2022-08-02T22:39:34.272Z,99898.25
2022-08-02T22:42:05.842Z,99907.59
2022-08-02T22:44:34.497Z,99906.91
2022-08-02T22:47:07.112Z,99897.75
2022-08-02T22:49:51.863Z,99904.38
2022-08-02T22:52:21.581Z,99900.22
2022-08-02T22:54:48.410Z,99896.72
2022-08-02T22:57:15.024Z,99898.75
2022-08-02T22:59:41.864Z,99906.75
2022-08-02T23:02:09.497Z,99900.63
2022-08-02T23:04:37.334Z,99908.31
2022-08-02T23:07:04.349Z,99913.81
2022-08-02T23:09:31.037Z,99907.88
2022-08-02T23:11:57.668Z,99911.47
2022-08-02T23:14:24.324Z,99917.56
2022-08-02T23:17:09.462Z,99915.97
2022-08-02T23:19:51.386Z,99920.28
2022-08-02T23:22:29.400Z,99920.06
2022-08-02T23:24:57.399Z,99919.34
2022-08-02T23:27:24.030Z,99921.25
2022-08-02T23:29:51.003Z,99925.91
2022-08-02T23:32:18.063Z,99926.03
2022-08-02T23:34:45.563Z,99921.72
2022-08-02T23:37:12.427Z,99935.81
2022-08-02T23:39:39.337Z,99927.41
2022-08-02T23:42:06.092Z,99926.94
2022-08-02T23:44:32.653Z,99927.22
2022-08-02T23:47:01.562Z,99931.28
2022-08-02T23:49:28.460Z,99928.28
2022-08-02T23:52:01.695Z,99929.38
2022-08-02T23:54:29.012Z,99941.56
2022-08-02T23:56:56.176Z,99923.66
2022-08-02T23:59:22.921Z,99927.81
